Time;durP1;ratioP1;P1;durP2;ratioP2;P2;SDS_P1;SDS_P2;PMS_P1;PMS_P2;Temp;Humidity;BMP_temperature;BMP_pressure;BME280_temperature;BME280_humidity;BME280_pressure;Samples;Min_cycle;Max_cycle;Signal;HPM_P1;HPM_P2
2021/09/24 00:00:26;;;;;;;;;;;15.40;99.90;;;;;;5034233;28;19913;-78
2021/09/24 00:02:52;;;;;;;;;;;15.30;99.90;;;;;;5019780;28;19913;-78
2021/09/24 00:05:18;;;;;;;;;;;15.30;99.90;;;;;;5031893;28;20312;-77
2021/09/24 00:07:43;;;;;;;;;;;15.40;99.90;;;;;;5044546;28;19920;-77
2021/09/24 00:10:09;;;;;;;;;;;15.40;99.90;;;;;;5036668;28;19910;-75
2021/09/24 00:12:35;;;;;;;;;;;15.40;99.90;;;;;;5025152;28;20000;-76
2021/09/24 00:15:01;;;;;;;;;;;15.30;99.90;;;;;;5029028;28;20327;-78
2021/09/24 00:17:27;;;;;;;;;;;15.30;99.90;;;;;;5036863;28;19917;-75
2021/09/24 00:19:53;;;;;;;;;;;15.30;99.90;;;;;;5033871;28;20311;-77
2021/09/24 00:22:19;;;;;;;;;;;15.30;99.90;;;;;;5038110;28;19927;-76
2021/09/24 00:24:44;;;;;;;;;;;15.30;99.90;;;;;;5039002;28;20011;-77
2021/09/24 00:27:10;;;;;;;;;;;15.30;99.90;;;;;;5053708;28;20219;-78
2021/09/24 00:29:35;;;;;;;;;;;15.40;99.90;;;;;;5034878;28;19913;-76
2021/09/24 00:32:01;;;;;;;;;;;15.40;99.90;;;;;;5053948;28;19924;-77
2021/09/24 00:34:27;;;;;;;;;;;15.40;99.90;;;;;;5053108;28;19970;-77
2021/09/24 00:36:52;;;;;;;;;;;15.40;99.90;;;;;;5047810;28;19945;-77
2021/09/24 00:39:18;;;;;;;;;;;15.40;99.90;;;;;;5039954;28;20241;-78
2021/09/24 00:41:43;;;;;;;;;;;15.40;99.90;;;;;;5051117;28;19974;-78
2021/09/24 00:44:09;;;;;;;;;;;15.40;99.90;;;;;;5053256;28;20300;-75
2021/09/24 00:46:35;;;;;;;;;;;15.40;99.90;;;;;;5052378;28;19920;-75
2021/09/24 00:49:00;;;;;;;;;;;15.40;99.90;;;;;;5055011;28;19913;-76
2021/09/24 00:51:26;;;;;;;;;;;15.40;99.90;;;;;;5057261;28;20346;-77
2021/09/24 00:53:52;;;;;;;;;;;15.40;99.90;;;;;;5062465;28;19912;-78
2021/09/24 00:56:18;;;;;;;;;;;15.40;99.90;;;;;;5053509;28;20316;-76
2021/09/24 00:58:44;;;;;;;;;;;15.50;99.90;;;;;;5048023;28;19909;-77
2021/09/24 01:01:10;;;;;;;;;;;15.50;99.90;;;;;;5049918;28;20058;-75
2021/09/24 01:03:37;;;;;;;;;;;15.50;99.90;;;;;;5048315;28;19909;-77
2021/09/24 01:06:03;;;;;;;;;;;15.50;99.90;;;;;;5056476;28;19924;-78
2021/09/24 01:08:30;;;;;;;;;;;15.40;99.90;;;;;;5053095;28;20224;-76
2021/09/24 01:10:56;;;;;;;;;;;15.40;99.90;;;;;;5038488;28;19917;-77
2021/09/24 01:13:21;;;;;;;;;;;15.40;99.90;;;;;;5056250;28;19924;-75
2021/09/24 01:15:47;;;;;;;;;;;15.40;99.90;;;;;;5039179;28;19913;-77
2021/09/24 01:18:12;;;;;;;;;;;15.40;99.90;;;;;;5059773;28;19913;-75
2021/09/24 01:20:38;;;;;;;;;;;15.40;99.90;;;;;;5055889;28;20304;-76
2021/09/24 01:23:04;;;;;;;;;;;15.40;99.90;;;;;;5038082;28;19974;-78
2021/09/24 01:25:33;;;;;;;;;;;15.40;99.90;;;;;;5055716;28;20457;-77
2021/09/24 01:27:59;;;;;;;;;;;15.40;99.90;;;;;;5056617;28;19916;-76
2021/09/24 01:30:24;;;;;;;;;;;15.40;99.90;;;;;;5038500;28;20256;-77
2021/09/24 01:32:50;;;;;;;;;;;15.40;99.90;;;;;;5055893;28;19912;-78
2021/09/24 01:35:16;;;;;;;;;;;15.40;99.90;;;;;;5041655;28;19913;-78
2021/09/24 01:37:42;;;;;;;;;;;15.50;99.90;;;;;;5055616;28;19916;-76
2021/09/24 01:40:18;;;;;;;;;;;15.50;99.90;;;;;;5041414;28;20011;-78
2021/09/24 01:42:44;;;;;;;;;;;15.50;99.90;;;;;;5055969;28;19923;-78
2021/09/24 01:45:10;;;;;;;;;;;15.50;99.90;;;;;;5056736;28;20219;-77
2021/09/24 01:47:36;;;;;;;;;;;15.50;99.90;;;;;;5035941;28;20048;-77
2021/09/24 01:50:02;;;;;;;;;;;15.60;99.90;;;;;;5056149;28;20019;-77
2021/09/24 01:52:28;;;;;;;;;;;15.60;99.90;;;;;;5055592;28;20478;-77
2021/09/24 01:54:54;;;;;;;;;;;15.60;99.90;;;;;;5038757;28;19909;-75
2021/09/24 01:57:20;;;;;;;;;;;15.50;99.90;;;;;;5038387;28;19920;-77
2021/09/24 01:59:45;;;;;;;;;;;15.50;99.90;;;;;;5055523;28;19913;-76
2021/09/24 02:02:11;;;;;;;;;;;15.50;99.90;;;;;;5045503;28;19921;-77
2021/09/24 02:04:36;;;;;;;;;;;15.50;99.90;;;;;;5042391;28;19921;-76
2021/09/24 02:07:02;;;;;;;;;;;15.50;99.90;;;;;;5026082;28;20019;-78
2021/09/24 02:09:28;;;;;;;;;;;15.60;99.90;;;;;;5048066;28;20338;-78
2021/09/24 02:11:53;;;;;;;;;;;15.50;99.90;;;;;;5053160;28;20308;-78
2021/09/24 02:14:19;;;;;;;;;;;15.50;99.90;;;;;;5055396;28;19913;-77
2021/09/24 02:16:45;;;;;;;;;;;15.50;99.90;;;;;;5050720;28;19958;-75
2021/09/24 02:19:10;;;;;;;;;;;15.50;99.90;;;;;;5053585;28;20227;-77
2021/09/24 02:21:36;;;;;;;;;;;15.50;99.90;;;;;;5035781;28;19917;-77
2021/09/24 02:24:02;;;;;;;;;;;15.50;99.90;;;;;;5055484;28;20227;-76
2021/09/24 02:26:27;;;;;;;;;;;15.40;99.90;;;;;;5056626;28;19921;-77
2021/09/24 02:28:53;;;;;;;;;;;15.40;99.90;;;;;;5046800;28;19916;-76
2021/09/24 02:31:19;;;;;;;;;;;15.40;99.90;;;;;;5066940;28;20211;-76
2021/09/24 02:33:44;;;;;;;;;;;15.40;99.90;;;;;;5043600;28;19919;-76
2021/09/24 02:36:10;;;;;;;;;;;15.40;99.90;;;;;;5054481;28;19919;-76
2021/09/24 02:38:35;;;;;;;;;;;15.40;99.90;;;;;;5037419;28;20316;-77
2021/09/24 02:41:01;;;;;;;;;;;15.40;99.90;;;;;;5055166;28;19923;-76
2021/09/24 02:43:27;;;;;;;;;;;15.40;99.90;;;;;;5061619;28;19916;-77
2021/09/24 02:45:53;;;;;;;;;;;15.40;99.90;;;;;;5061854;28;19920;-76
2021/09/24 02:48:18;;;;;;;;;;;15.50;99.90;;;;;;5054238;28;19909;-75
2021/09/24 02:50:44;;;;;;;;;;;15.50;99.90;;;;;;5037413;28;19917;-77
2021/09/24 02:53:10;;;;;;;;;;;15.50;99.90;;;;;;5051223;28;19936;-76
2021/09/24 02:55:35;;;;;;;;;;;15.40;99.90;;;;;;5053167;28;19937;-75
2021/09/24 02:58:01;;;;;;;;;;;15.40;99.90;;;;;;5037190;28;19917;-78
2021/09/24 03:00:27;;;;;;;;;;;15.40;99.90;;;;;;5052014;28;19973;-76
2021/09/24 03:02:53;;;;;;;;;;;15.40;99.90;;;;;;5044391;28;19921;-76
2021/09/24 03:05:18;;;;;;;;;;;15.40;99.90;;;;;;5054255;28;20019;-75
2021/09/24 03:07:44;;;;;;;;;;;15.40;99.90;;;;;;5053857;28;19913;-75
2021/09/24 03:10:10;;;;;;;;;;;15.40;99.90;;;;;;5054750;28;19917;-76
2021/09/24 03:12:35;;;;;;;;;;;15.40;99.90;;;;;;5054760;28;19924;-76
2021/09/24 03:15:01;;;;;;;;;;;15.40;99.90;;;;;;5035645;28;19921;-78
2021/09/24 03:17:26;;;;;;;;;;;15.40;99.90;;;;;;5054021;28;20377;-78
2021/09/24 03:19:52;;;;;;;;;;;15.40;99.90;;;;;;5053336;28;19963;-78
2021/09/24 03:22:17;;;;;;;;;;;15.40;99.90;;;;;;5036321;28;20338;-76
2021/09/24 03:24:43;;;;;;;;;;;15.40;99.90;;;;;;5054356;28;19952;-77
2021/09/24 03:27:09;;;;;;;;;;;15.40;99.90;;;;;;5037098;28;19967;-76
2021/09/24 03:29:34;;;;;;;;;;;15.50;99.90;;;;;;5053800;28;19913;-77
2021/09/24 03:32:00;;;;;;;;;;;15.40;99.90;;;;;;5054515;28;20019;-76
2021/09/24 03:34:26;;;;;;;;;;;15.40;99.90;;;;;;5036011;28;19916;-78
2021/09/24 03:36:51;;;;;;;;;;;15.40;99.90;;;;;;5053770;28;19913;-78
2021/09/24 03:39:17;;;;;;;;;;;15.40;99.90;;;;;;5053289;28;19959;-78
2021/09/24 03:41:43;;;;;;;;;;;15.50;99.90;;;;;;5054315;28;19960;-78
2021/09/24 03:44:09;;;;;;;;;;;15.40;99.90;;;;;;5035078;28;19913;-77
2021/09/24 03:46:34;;;;;;;;;;;15.40;99.90;;;;;;5041330;28;19913;-77
2021/09/24 03:49:00;;;;;;;;;;;15.40;99.90;;;;;;5040969;28;20197;-76
2021/09/24 03:51:26;;;;;;;;;;;15.50;99.90;;;;;;5061171;28;19924;-77
2021/09/24 03:53:51;;;;;;;;;;;15.50;99.90;;;;;;5054499;28;20215;-75
2021/09/24 03:56:17;;;;;;;;;;;15.50;99.90;;;;;;5051064;28;19909;-77
2021/09/24 03:58:43;;;;;;;;;;;15.50;99.90;;;;;;5043037;28;19913;-75
2021/09/24 04:01:08;;;;;;;;;;;15.50;99.90;;;;;;5052741;28;19939;-78
2021/09/24 04:03:34;;;;;;;;;;;15.50;99.90;;;;;;5051621;28;19958;-77
2021/09/24 04:05:59;;;;;;;;;;;15.50;99.90;;;;;;5044150;28;19963;-77
2021/09/24 04:08:25;;;;;;;;;;;15.50;99.90;;;;;;5054557;28;19909;-77
2021/09/24 04:10:53;;;;;;;;;;;15.50;99.90;;;;;;5036501;28;19974;-77
2021/09/24 04:13:19;;;;;;;;;;;15.50;99.90;;;;;;5036802;28;19921;-76
2021/09/24 04:15:44;;;;;;;;;;;15.40;99.90;;;;;;5052585;28;19975;-76
2021/09/24 04:18:10;;;;;;;;;;;15.40;99.90;;;;;;5053764;28;19913;-77
2021/09/24 04:20:35;;;;;;;;;;;15.40;99.90;;;;;;5054885;28;19920;-75
2021/09/24 04:23:01;;;;;;;;;;;15.40;99.90;;;;;;5032978;28;19979;-75
2021/09/24 04:25:26;;;;;;;;;;;15.40;99.90;;;;;;5016119;28;19922;-78
2021/09/24 04:27:52;;;;;;;;;;;15.40;99.90;;;;;;5017960;28;19914;-77
2021/09/24 04:30:18;;;;;;;;;;;15.40;99.90;;;;;;5020906;28;19917;-76
2021/09/24 04:32:43;;;;;;;;;;;15.40;99.90;;;;;;5017626;28;19917;-76
2021/09/24 04:35:09;;;;;;;;;;;15.40;99.90;;;;;;5033126;28;19920;-76
2021/09/24 04:37:34;;;;;;;;;;;15.40;99.90;;;;;;5017029;28;19914;-77
2021/09/24 04:40:00;;;;;;;;;;;15.40;99.90;;;;;;5017222;28;19913;-77
2021/09/24 04:42:27;;;;;;;;;;;15.40;99.90;;;;;;5016981;28;19936;-76
2021/09/24 04:44:52;;;;;;;;;;;15.40;99.90;;;;;;5033178;28;20324;-77
2021/09/24 04:47:18;;;;;;;;;;;15.40;99.90;;;;;;5017421;28;19967;-77
2021/09/24 04:49:44;;;;;;;;;;;15.30;99.90;;;;;;5017312;28;19914;-77
2021/09/24 04:52:09;;;;;;;;;;;15.30;99.90;;;;;;5016326;28;20252;-76
2021/09/24 04:54:35;;;;;;;;;;;15.30;99.90;;;;;;5017034;28;19918;-77
2021/09/24 04:57:00;;;;;;;;;;;15.40;99.90;;;;;;5017400;28;20208;-75
2021/09/24 04:59:26;;;;;;;;;;;15.40;99.90;;;;;;5016256;28;20300;-76
2021/09/24 05:01:51;;;;;;;;;;;15.30;99.90;;;;;;5017600;28;19936;-76
2021/09/24 05:04:17;;;;;;;;;;;15.30;99.90;;;;;;5049255;28;20625;-76
2021/09/24 05:06:42;;;;;;;;;;;15.40;99.90;;;;;;5017321;28;20003;-77
2021/09/24 05:09:08;;;;;;;;;;;15.30;99.90;;;;;;5016581;28;19921;-77
2021/09/24 05:11:34;;;;;;;;;;;15.30;99.90;;;;;;5017630;28;19913;-75
2021/09/24 05:13:59;;;;;;;;;;;15.30;99.90;;;;;;5016733;28;19948;-77
2021/09/24 05:16:25;;;;;;;;;;;15.30;99.90;;;;;;5048308;28;19921;-75
2021/09/24 05:18:50;;;;;;;;;;;15.20;99.90;;;;;;5025305;28;19917;-75
2021/09/24 05:21:16;;;;;;;;;;;15.20;99.90;;;;;;5026436;28;19917;-76
2021/09/24 05:23:42;;;;;;;;;;;15.10;99.90;;;;;;5058501;28;19921;-77
2021/09/24 05:26:07;;;;;;;;;;;15.10;99.90;;;;;;5066025;28;20219;-75
2021/09/24 05:28:33;;;;;;;;;;;15.00;99.90;;;;;;5043667;28;19974;-77
2021/09/24 05:30:59;;;;;;;;;;;15.10;99.90;;;;;;5044648;28;20019;-77
2021/09/24 05:33:24;;;;;;;;;;;15.10;99.90;;;;;;5044383;28;19919;-77
2021/09/24 05:35:50;;;;;;;;;;;15.00;99.90;;;;;;5064345;28;19951;-77
2021/09/24 05:38:16;;;;;;;;;;;14.90;99.90;;;;;;5064108;28;19912;-76
2021/09/24 05:40:41;;;;;;;;;;;14.90;99.90;;;;;;5042468;28;20363;-75
2021/09/24 05:43:07;;;;;;;;;;;15.00;99.90;;;;;;5047687;28;19996;-76
2021/09/24 05:45:32;;;;;;;;;;;14.90;99.90;;;;;;5047055;28;20272;-77
2021/09/24 05:47:58;;;;;;;;;;;14.90;99.90;;;;;;5062434;28;20027;-78
2021/09/24 05:50:26;;;;;;;;;;;14.90;99.90;;;;;;5065803;28;19955;-76
2021/09/24 05:52:52;;;;;;;;;;;14.90;99.90;;;;;;5045700;28;19952;-77
2021/09/24 05:55:19;;;;;;;;;;;15.00;99.90;;;;;;5065251;28;20300;-76
2021/09/24 05:57:45;;;;;;;;;;;15.00;99.90;;;;;;5044509;28;19975;-76
2021/09/24 06:00:12;;;;;;;;;;;15.00;99.90;;;;;;5057119;28;19935;-78
2021/09/24 06:02:38;;;;;;;;;;;15.00;99.90;;;;;;5056172;28;20273;-78
2021/09/24 06:05:04;;;;;;;;;;;15.10;99.90;;;;;;5061872;28;19966;-78
2021/09/24 06:07:29;;;;;;;;;;;15.10;99.90;;;;;;5039345;28;20041;-75
2021/09/24 06:09:55;;;;;;;;;;;15.10;99.90;;;;;;5060207;28;19921;-76
2021/09/24 06:12:21;;;;;;;;;;;15.20;99.90;;;;;;5062685;28;20030;-77
2021/09/24 06:14:46;;;;;;;;;;;15.20;99.90;;;;;;5063068;28;19916;-77
2021/09/24 06:17:12;;;;;;;;;;;15.20;99.90;;;;;;5038390;28;19913;-77
2021/09/24 06:19:38;;;;;;;;;;;15.20;99.90;;;;;;5035898;28;19913;-77
2021/09/24 06:22:04;;;;;;;;;;;15.40;99.90;;;;;;5035132;28;20212;-75
2021/09/24 06:24:33;;;;;;;;;;;15.40;99.90;;;;;;5045142;28;19921;-75
2021/09/24 06:27:00;;;;;;;;;;;15.40;99.90;;;;;;5049795;28;19929;-77
2021/09/24 06:29:26;;;;;;;;;;;15.40;99.90;;;;;;5051110;28;19913;-78
2021/09/24 06:31:53;;;;;;;;;;;15.50;99.90;;;;;;5033138;28;19931;-76
2021/09/24 06:34:19;;;;;;;;;;;15.50;99.90;;;;;;5068234;28;19974;-76
2021/09/24 06:36:44;;;;;;;;;;;15.50;99.90;;;;;;5048366;28;19908;-76
2021/09/24 06:39:10;;;;;;;;;;;15.60;99.90;;;;;;5046055;28;19913;-77
2021/09/24 06:41:36;;;;;;;;;;;15.70;99.90;;;;;;5051885;28;19919;-75
2021/09/24 06:44:01;;;;;;;;;;;15.70;99.90;;;;;;5029256;28;20019;-75
2021/09/24 06:46:27;;;;;;;;;;;15.80;99.90;;;;;;5043448;28;20296;-78
2021/09/24 06:48:52;;;;;;;;;;;15.80;99.90;;;;;;5035852;28;19919;-76
2021/09/24 06:51:18;;;;;;;;;;;15.90;99.90;;;;;;5053487;28;19951;-76
2021/09/24 06:53:44;;;;;;;;;;;15.90;99.90;;;;;;5051149;28;19912;-76
2021/09/24 06:56:11;;;;;;;;;;;15.90;99.90;;;;;;5046393;28;19918;-76
2021/09/24 06:58:36;;;;;;;;;;;16.10;99.90;;;;;;5050121;28;19974;-77
2021/09/24 07:01:02;;;;;;;;;;;16.10;99.90;;;;;;5057505;28;19912;-78
2021/09/24 07:03:28;;;;;;;;;;;16.10;99.90;;;;;;5062371;28;19912;-78
2021/09/24 07:05:53;;;;;;;;;;;16.20;99.90;;;;;;5063139;28;19925;-76
2021/09/24 07:08:21;;;;;;;;;;;16.20;99.90;;;;;;5042989;28;19923;-76
2021/09/24 07:10:46;;;;;;;;;;;16.20;99.90;;;;;;5061769;28;20000;-75
2021/09/24 07:13:12;;;;;;;;;;;16.30;99.90;;;;;;5060322;28;20047;-75
2021/09/24 07:15:43;;;;;;;;;;;16.30;99.90;;;;;;5061147;28;19919;-75
2021/09/24 07:18:09;;;;;;;;;;;16.40;99.90;;;;;;5061252;28;20034;-75
2021/09/24 07:20:34;;;;;;;;;;;16.50;99.90;;;;;;5042232;28;20011;-75
2021/09/24 07:23:00;;;;;;;;;;;16.50;99.90;;;;;;5057256;28;20078;-75
2021/09/24 07:25:25;;;;;;;;;;;16.60;99.90;;;;;;5037038;28;19966;-75
2021/09/24 07:27:51;;;;;;;;;;;16.60;99.90;;;;;;5058194;28;19916;-75
2021/09/24 07:30:16;;;;;;;;;;;16.70;99.90;;;;;;5063795;28;20366;-75
2021/09/24 07:32:42;;;;;;;;;;;16.80;99.90;;;;;;5063382;28;19916;-75
2021/09/24 07:35:08;;;;;;;;;;;16.80;99.90;;;;;;5043850;28;19913;-75
2021/09/24 07:37:34;;;;;;;;;;;16.80;99.90;;;;;;5043966;28;20197;-75
2021/09/24 07:39:59;;;;;;;;;;;16.80;99.90;;;;;;5062504;28;19919;-75
2021/09/24 07:42:25;;;;;;;;;;;16.90;99.90;;;;;;5063108;28;20363;-75
2021/09/24 07:44:51;;;;;;;;;;;16.90;99.90;;;;;;5063183;28;19920;-75
2021/09/24 07:47:16;;;;;;;;;;;17.00;99.90;;;;;;5062824;28;20263;-75
2021/09/24 07:49:43;;;;;;;;;;;17.10;99.90;;;;;;5064144;28;19916;-75
2021/09/24 07:52:08;;;;;;;;;;;17.10;99.90;;;;;;5061445;28;19974;-75
2021/09/24 07:54:34;;;;;;;;;;;17.20;99.90;;;;;;5063464;28;19913;-75
2021/09/24 07:56:59;;;;;;;;;;;17.20;99.90;;;;;;5066696;28;19967;-75
2021/09/24 07:59:25;;;;;;;;;;;17.20;99.90;;;;;;5065786;28;20007;-75
2021/09/24 08:01:51;;;;;;;;;;;17.20;99.90;;;;;;5067497;28;19952;-75
2021/09/24 08:04:16;;;;;;;;;;;17.20;99.90;;;;;;5067481;28;19954;-75
2021/09/24 08:06:42;;;;;;;;;;;17.30;99.90;;;;;;5069388;28;20257;-75
2021/09/24 08:09:07;;;;;;;;;;;17.30;99.90;;;;;;5049538;28;19940;-75
2021/09/24 08:11:33;;;;;;;;;;;17.30;99.90;;;;;;5067716;28;19919;-75
2021/09/24 08:13:59;;;;;;;;;;;17.40;99.90;;;;;;5066859;28;19916;-75
2021/09/24 08:16:24;;;;;;;;;;;17.40;99.90;;;;;;5066119;28;19962;-75
2021/09/24 08:18:50;;;;;;;;;;;17.50;99.90;;;;;;5063304;28;19924;-75
2021/09/24 08:21:16;;;;;;;;;;;17.50;99.90;;;;;;5065136;28;20366;-75
2021/09/24 08:23:42;;;;;;;;;;;17.60;99.90;;;;;;5059078;28;19927;-77
2021/09/24 08:26:10;;;;;;;;;;;17.60;99.90;;;;;;5057717;28;19970;-78
2021/09/24 08:28:36;;;;;;;;;;;17.60;99.90;;;;;;5060104;28;20388;-77
2021/09/24 08:31:02;;;;;;;;;;;17.70;99.90;;;;;;5040857;28;19920;-77
2021/09/24 08:33:28;;;;;;;;;;;17.80;99.90;;;;;;5065244;28;20007;-77
2021/09/24 08:35:55;;;;;;;;;;;17.80;99.90;;;;;;5065666;28;19916;-77
2021/09/24 08:38:21;;;;;;;;;;;17.90;99.90;;;;;;5045207;28;20016;-78
2021/09/24 08:40:47;;;;;;;;;;;18.00;99.90;;;;;;5064819;28;20024;-77
2021/09/24 08:43:13;;;;;;;;;;;18.00;99.90;;;;;;5045763;28;19922;-78
2021/09/24 08:45:40;;;;;;;;;;;18.10;99.90;;;;;;5061432;28;19924;-77
2021/09/24 08:48:06;;;;;;;;;;;18.10;99.90;;;;;;5059959;28;19913;-77
2021/09/24 08:50:33;;;;;;;;;;;18.10;99.90;;;;;;5062271;28;20204;-77
2021/09/24 08:52:59;;;;;;;;;;;18.20;99.90;;;;;;5061326;28;19924;-77
2021/09/24 08:55:25;;;;;;;;;;;18.30;99.90;;;;;;5056915;28;20323;-77
2021/09/24 08:57:51;;;;;;;;;;;18.30;99.90;;;;;;5066227;28;19990;-77
2021/09/24 09:00:17;;;;;;;;;;;18.30;99.90;;;;;;5064534;28;20204;-77
2021/09/24 09:03:11;;;;;;;;;;;18.40;99.90;;;;;;5064834;28;19912;-78
2021/09/24 09:05:45;;;;;;;;;;;18.50;99.90;;;;;;5063129;28;20028;-78
2021/09/24 09:08:18;;;;;;;;;;;18.50;99.90;;;;;;5044238;28;19927;-78
2021/09/24 09:10:55;;;;;;;;;;;18.60;99.90;;;;;;5060051;28;19967;-78
2021/09/24 09:13:21;;;;;;;;;;;18.60;99.90;;;;;;5058265;28;19932;-77
2021/09/24 09:15:51;;;;;;;;;;;18.70;99.90;;;;;;5064100;28;19923;-78
2021/09/24 09:18:18;;;;;;;;;;;18.80;99.90;;;;;;5044823;28;19916;-76
2021/09/24 09:20:44;;;;;;;;;;;18.80;99.90;;;;;;5048440;28;20361;-76
2021/09/24 09:23:11;;;;;;;;;;;18.90;99.90;;;;;;5065112;28;19966;-76
2021/09/24 09:25:41;;;;;;;;;;;19.00;99.90;;;;;;5040798;28;19931;-75
2021/09/24 09:28:11;;;;;;;;;;;19.20;99.90;;;;;;5063754;28;19964;-75
2021/09/24 09:30:37;;;;;;;;;;;19.30;99.90;;;;;;5067259;28;19955;-76
2021/09/24 09:33:14;;;;;;;;;;;19.50;99.90;;;;;;5064706;28;19959;-75
2021/09/24 09:35:53;;;;;;;;;;;19.70;99.90;;;;;;5054707;28;19920;-76
2021/09/24 09:38:18;;;;;;;;;;;20.00;99.90;;;;;;5046026;28;19919;-77
2021/09/24 09:40:45;;;;;;;;;;;20.40;99.90;;;;;;5063313;28;19916;-75
2021/09/24 09:43:17;;;;;;;;;;;20.80;99.90;;;;;;5066542;28;19916;-75
2021/09/24 09:45:43;;;;;;;;;;;21.10;99.90;;;;;;5058017;28;19932;-75
2021/09/24 09:48:11;;;;;;;;;;;21.30;99.90;;;;;;5028532;28;19925;-76
2021/09/24 09:50:38;;;;;;;;;;;21.50;99.90;;;;;;5051076;28;19917;-78
2021/09/24 09:53:12;;;;;;;;;;;21.50;99.90;;;;;;5033945;28;20379;-80
2021/09/24 09:55:39;;;;;;;;;;;21.60;99.90;;;;;;5034324;28;20381;-76
2021/09/24 09:58:07;;;;;;;;;;;21.70;99.90;;;;;;5057136;28;19920;-76
2021/09/24 10:00:34;;;;;;;;;;;21.80;99.90;;;;;;5029438;28;20336;-76
2021/09/24 10:03:04;;;;;;;;;;;21.90;99.90;;;;;;5044860;28;20318;-78
2021/09/24 10:05:37;;;;;;;;;;;21.90;99.90;;;;;;5042394;28;19980;-76
2021/09/24 10:08:23;;;;;;;;;;;21.90;99.90;;;;;;5034060;28;19956;-78
2021/09/24 10:11:01;;;;;;;;;;;21.80;99.90;;;;;;5051868;28;20382;-75
2021/09/24 10:15:59;;;;;;;;;;;21.80;99.90;;;;;;5055138;28;20493;-76
2021/09/24 10:18:24;;;;;;;;;;;21.90;99.90;;;;;;5051383;28;20220;-77
2021/09/24 10:20:50;;;;;;;;;;;22.00;99.90;;;;;;5028196;28;19922;-79
2021/09/24 10:23:16;;;;;;;;;;;22.00;99.90;;;;;;5045367;28;19928;-76
2021/09/24 10:25:42;;;;;;;;;;;22.00;99.90;;;;;;5050698;28;19932;-76
2021/09/24 10:28:09;;;;;;;;;;;22.00;99.90;;;;;;5056299;28;19952;-77
2021/09/24 10:30:35;;;;;;;;;;;22.00;99.90;;;;;;5061755;28;19997;-76
2021/09/24 10:33:02;;;;;;;;;;;22.10;99.90;;;;;;5044814;28;19972;-78
2021/09/24 10:35:44;;;;;;;;;;;22.10;99.90;;;;;;5046152;28;19986;-77
2021/09/24 10:38:10;;;;;;;;;;;21.90;99.90;;;;;;5064313;28;19920;-77
2021/09/24 10:40:50;;;;;;;;;;;21.60;99.90;;;;;;5064645;28;19916;-78
2021/09/24 10:43:15;;;;;;;;;;;21.60;99.90;;;;;;5043280;28;19919;-76
2021/09/24 10:45:42;;;;;;;;;;;21.60;99.90;;;;;;5060416;28;19925;-77
2021/09/24 10:48:20;;;;;;;;;;;21.60;99.90;;;;;;5063157;28;20002;-77
2021/09/24 10:50:50;;;;;;;;;;;21.50;99.90;;;;;;5052086;28;19913;-76
2021/09/24 10:53:22;;;;;;;;;;;21.50;99.90;;;;;;5061810;28;19913;-77
2021/09/24 10:56:08;;;;;;;;;;;21.50;99.90;;;;;;5042052;28;19913;-76
2021/09/24 10:58:41;;;;;;;;;;;21.60;99.90;;;;;;5063103;28;19924;-79
2021/09/24 11:01:12;;;;;;;;;;;21.60;99.90;;;;;;5061895;28;20358;-79
2021/09/24 11:03:57;;;;;;;;;;;21.60;99.90;;;;;;5034240;28;19921;-78
2021/09/24 11:06:55;;;;;;;;;;;21.40;99.90;;;;;;5037593;28;19982;-77
2021/09/24 11:09:22;;;;;;;;;;;21.50;99.90;;;;;;4949908;28;19998;-76
2021/09/24 11:11:49;;;;;;;;;;;21.60;99.90;;;;;;4951195;28;20302;-78
2021/09/24 11:14:20;;;;;;;;;;;21.80;99.90;;;;;;4964125;28;19966;-78
2021/09/24 11:16:48;;;;;;;;;;;22.00;99.90;;;;;;4962352;28;19920;-81
2021/09/24 11:19:32;;;;;;;;;;;22.10;99.90;;;;;;4954790;28;19914;-77
2021/09/24 11:21:58;;;;;;;;;;;22.20;99.90;;;;;;4948835;28;19921;-79
2021/09/24 11:24:33;;;;;;;;;;;22.20;99.90;;;;;;4956737;28;20005;-77
2021/09/24 11:27:01;;;;;;;;;;;22.20;99.90;;;;;;4952991;28;19965;-77
2021/09/24 11:29:30;;;;;;;;;;;22.10;99.90;;;;;;4949742;28;19921;-78
2021/09/24 11:31:55;;;;;;;;;;;22.00;99.90;;;;;;4957822;28;20020;-78
2021/09/24 11:34:50;;;;;;;;;;;21.80;99.90;;;;;;4963099;28;19961;-76
2021/09/24 11:37:21;;;;;;;;;;;21.60;99.90;;;;;;4947226;28;19931;-79
2021/09/24 11:39:54;;;;;;;;;;;21.50;99.90;;;;;;4949976;28;19918;-77
2021/09/24 11:42:19;;;;;;;;;;;21.40;99.90;;;;;;4972050;28;20336;-77
2021/09/24 11:44:49;;;;;;;;;;;21.20;99.90;;;;;;4979084;28;19915;-78
2021/09/24 11:47:15;;;;;;;;;;;21.20;99.90;;;;;;5056216;28;19920;-77
2021/09/24 11:49:55;;;;;;;;;;;21.10;99.90;;;;;;5048802;28;19917;-77
2021/09/24 11:52:22;;;;;;;;;;;21.10;99.90;;;;;;5041310;28;20007;-77
2021/09/24 11:54:47;;;;;;;;;;;21.10;99.90;;;;;;5060692;28;20034;-79
2021/09/24 11:57:14;;;;;;;;;;;21.10;99.90;;;;;;5039467;28;20062;-77
2021/09/24 11:59:39;;;;;;;;;;;21.10;99.90;;;;;;5039268;28;19995;-77
2021/09/24 12:02:06;;;;;;;;;;;21.00;99.90;;;;;;5038411;28;19960;-77
2021/09/24 12:04:31;;;;;;;;;;;20.90;99.90;;;;;;5063712;28;19916;-76
2021/09/24 12:06:58;;;;;;;;;;;20.90;99.90;;;;;;5047209;28;19927;-81
2021/09/24 12:09:25;;;;;;;;;;;20.90;99.90;;;;;;5060653;28;20294;-80
2021/09/24 12:11:52;;;;;;;;;;;20.80;99.90;;;;;;5059860;28;19920;-78
2021/09/24 12:14:18;;;;;;;;;;;20.90;99.90;;;;;;5063079;28;19919;-80
2021/09/24 12:16:44;;;;;;;;;;;20.80;99.90;;;;;;5041504;28;20000;-79
2021/09/24 12:19:12;;;;;;;;;;;20.90;99.90;;;;;;5062300;28;20264;-78
2021/09/24 12:21:37;;;;;;;;;;;20.90;99.90;;;;;;5062763;28;19952;-81
2021/09/24 12:24:15;;;;;;;;;;;20.80;99.90;;;;;;5043729;28;20009;-83
2021/09/24 12:26:42;;;;;;;;;;;20.80;99.90;;;;;;5060607;28;20211;-78
2021/09/24 12:29:09;;;;;;;;;;;20.80;99.90;;;;;;5061719;28;19919;-84
2021/09/24 12:31:37;;;;;;;;;;;20.70;99.90;;;;;;5057659;28;19967;-81
2021/09/24 12:34:03;;;;;;;;;;;20.80;99.90;;;;;;5063084;28;19920;-81
2021/09/24 12:36:28;;;;;;;;;;;20.80;99.90;;;;;;5062436;28;19958;-77
2021/09/24 12:39:09;;;;;;;;;;;20.90;99.90;;;;;;5041156;28;19916;-78
2021/09/24 12:41:39;;;;;;;;;;;20.90;99.90;;;;;;5060799;28;19923;-79
2021/09/24 12:44:05;;;;;;;;;;;21.00;99.90;;;;;;5044534;28;19916;-78
2021/09/24 12:46:41;;;;;;;;;;;21.20;99.90;;;;;;5061616;28;19955;-78
2021/09/24 12:49:07;;;;;;;;;;;21.20;99.90;;;;;;5060950;28;19916;-80
2021/09/24 12:51:33;;;;;;;;;;;21.30;99.90;;;;;;5054372;28;19921;-81
2021/09/24 12:53:59;;;;;;;;;;;21.20;99.90;;;;;;5045531;28;20008;-84
2021/09/24 12:56:25;;;;;;;;;;;21.20;99.90;;;;;;5044932;28;19913;-80
2021/09/24 12:58:55;;;;;;;;;;;21.20;99.90;;;;;;5059393;28;19917;-78
2021/09/24 13:01:21;;;;;;;;;;;21.20;99.90;;;;;;5057822;28;19920;-77
2021/09/24 13:03:47;;;;;;;;;;;21.10;99.90;;;;;;5056228;28;19924;-78
2021/09/24 13:06:13;;;;;;;;;;;21.00;99.90;;;;;;5038117;28;21343;-77
2021/09/24 13:08:39;;;;;;;;;;;21.00;99.90;;;;;;5046330;28;19917;-78
2021/09/24 13:11:07;;;;;;;;;;;21.00;99.90;;;;;;5030291;28;19975;-77
2021/09/24 13:13:32;;;;;;;;;;;21.00;99.90;;;;;;5046315;28;19916;-79
2021/09/24 13:15:58;;;;;;;;;;;21.00;99.90;;;;;;5039751;28;19920;-78
2021/09/24 13:18:24;;;;;;;;;;;21.10;99.90;;;;;;5038181;28;20296;-78
2021/09/24 13:21:02;;;;;;;;;;;21.30;99.90;;;;;;5046605;28;20251;-78
2021/09/24 13:23:28;;;;;;;;;;;21.50;99.90;;;;;;5044847;28;20278;-80
2021/09/24 13:25:54;;;;;;;;;;;21.70;99.90;;;;;;5036793;28;20011;-78
2021/09/24 13:28:20;;;;;;;;;;;21.70;99.90;;;;;;5043124;28;19955;-86
2021/09/24 13:30:46;;;;;;;;;;;21.70;99.90;;;;;;5055327;28;19944;-79
2021/09/24 13:33:12;;;;;;;;;;;21.80;99.90;;;;;;5036053;28;19921;-82
2021/09/24 13:35:38;;;;;;;;;;;21.90;99.90;;;;;;5032151;28;19916;-81
2021/09/24 13:38:04;;;;;;;;;;;21.90;99.90;;;;;;5033896;28;19940;-79
2021/09/24 13:40:30;;;;;;;;;;;21.80;99.90;;;;;;5038433;28;19970;-77
2021/09/24 13:42:55;;;;;;;;;;;21.90;99.90;;;;;;5055037;28;19913;-77
2021/09/24 13:45:21;;;;;;;;;;;21.90;99.90;;;;;;5056739;28;19913;-78
2021/09/24 13:47:47;;;;;;;;;;;21.90;99.90;;;;;;5055286;28;20311;-79
2021/09/24 13:50:12;;;;;;;;;;;21.80;99.90;;;;;;5038267;28;19912;-79
2021/09/24 13:52:38;;;;;;;;;;;21.70;99.90;;;;;;5055279;28;19921;-78
2021/09/24 13:55:04;;;;;;;;;;;21.60;99.90;;;;;;5055270;28;19959;-77
2021/09/24 13:57:30;;;;;;;;;;;21.60;99.90;;;;;;5048744;28;19913;-75
2021/09/24 13:59:57;;;;;;;;;;;21.60;99.90;;;;;;5041074;28;19912;-78
2021/09/24 14:02:22;;;;;;;;;;;21.60;99.90;;;;;;5046800;28;19912;-78
2021/09/24 14:04:48;;;;;;;;;;;21.60;99.90;;;;;;5047752;28;20227;-79
2021/09/24 14:07:14;;;;;;;;;;;21.60;99.90;;;;;;5039473;28;19924;-78
2021/09/24 14:09:39;;;;;;;;;;;21.70;99.90;;;;;;5053814;28;19924;-78
2021/09/24 14:12:05;;;;;;;;;;;21.60;99.90;;;;;;5037666;28;19974;-78
2021/09/24 14:14:31;;;;;;;;;;;21.40;99.90;;;;;;5042393;28;19916;-80
2021/09/24 14:16:56;;;;;;;;;;;21.30;99.90;;;;;;5054826;28;19928;-79